Weather History for KJYG - February, 2014

Change the Weather History Date:

Wednesday, February 26, 2014

  Actual Average Record
Temperature  
Mean Temperature 8 °F -  
Max Temperature 23 °F 36 °F 55 °F (1976)
Min Temperature -7 °F 17 °F -12 °F (1963)
Degree Days  
Heating Degree Days 57    
Moisture  
Dew Point -2 °F    
Average Humidity 70    
Maximum Humidity 84    
Minimum Humidity 59    
Precipitation  
Precipitation 0.00 in - - ()
Sea Level Pressure  
Sea Level Pressure 29.99 in    
Wind  
Wind Speed 14 mph (WSW)    
Max Wind Speed 33 mph    
Max Gust Speed 39 mph    
Visibility 9 miles    
Events      
Averages and records for this station are not official NWS values.
T = Trace of Precipitation, MM = Missing Value Source: NWS Daily Summary

Daily Weather History Graph

Daily Weather History Graph

Search for Another Location

Airport or City:

Trip Planner

Search our weather history database for the weather conditions in past years. The results will help you decide how hot, cold, wet, or windy it might be!

Date:

Astronomy

Feb. 26, 2014 Rise Set
Actual Time 7:00 AM CST 6:02 PM CST
Civil Twilight 6:31 AM CST 6:31 PM CST
Nautical Twilight 5:57 AM CST 7:05 PM CST
Astronomical Twilight 5:24 AM CST 7:38 PM CST
Moon 4:51 AM CST (2/26) 3:14 PM CST (2/26)
Length of Visible Light 12h 00m
Length of Day
11h 02m
Waning Crescent, 10% of the Moon is Illuminated
Feb 26
Waning Crescent
Mar 1
New
Mar 8
First Quarter
Mar 16
Full
Mar 23
Last Quarter

Hourly Weather History & Observations

Time (CST) Temp. Windchill Dew Point Humidity Pressure Visibility Wind Dir Wind Speed Gust Speed Precip Events Conditions
12:15 AM -4.0 °F -20.2 °F -9.4 °F 78% 30.39 in 10.0 mi West 9.2 mph - N/A   Clear
12:35 AM -5.8 °F -22.4 °F -9.4 °F 84% 30.38 in 10.0 mi WNW 9.2 mph - N/A   Clear
12:55 AM -5.8 °F -21.2 °F -9.4 °F 84% 30.38 in 10.0 mi West 8.1 mph - N/A   Clear
1:15 AM -5.8 °F -18.4 °F -11.2 °F 77% 30.36 in 10.0 mi West 5.8 mph - N/A   Clear
1:35 AM -5.8 °F -19.9 °F -11.2 °F 77% 30.35 in 10.0 mi West 6.9 mph - N/A   Clear
1:55 AM -5.8 °F -21.2 °F -11.2 °F 77% 30.35 in 10.0 mi West 8.1 mph - N/A   Clear
2:15 AM -5.8 °F -19.9 °F -11.2 °F 77% 30.34 in 10.0 mi WSW 6.9 mph - N/A   Clear
2:35 AM -5.8 °F -21.2 °F -11.2 °F 77% 30.33 in 10.0 mi West 8.1 mph - N/A   Clear
2:55 AM -5.8 °F -19.9 °F -11.2 °F 77% 30.31 in 10.0 mi WSW 6.9 mph - N/A   Clear
3:15 AM -5.8 °F -21.2 °F -11.2 °F 77% 30.30 in 10.0 mi SW 8.1 mph - N/A   Clear
3:35 AM -5.8 °F -21.2 °F -13.0 °F 71% 30.29 in 10.0 mi SW 8.1 mph - N/A   Clear
3:55 AM -5.8 °F -21.2 °F -11.2 °F 77% 30.27 in 10.0 mi SW 8.1 mph - N/A   Clear
4:15 AM -7.6 °F -23.4 °F -13.0 °F 77% 30.26 in 10.0 mi SW 8.1 mph - N/A   Clear
4:35 AM -7.6 °F -23.4 °F -13.0 °F 77% 30.24 in 10.0 mi SW 8.1 mph - N/A   Clear
4:55 AM -7.6 °F -24.6 °F -13.0 °F 77% 30.23 in 10.0 mi SW 9.2 mph - N/A   Clear
5:15 AM -7.6 °F -22.1 °F -13.0 °F 77% 30.21 in 10.0 mi SW 6.9 mph - N/A   Clear
5:35 AM -5.8 °F -22.4 °F -11.2 °F 77% 30.19 in 10.0 mi SW 9.2 mph - N/A   Clear
5:54 AM -5.8 °F -21.2 °F -13.0 °F 71% 30.18 in 10.0 mi SW 8.1 mph - N/A   Clear
6:15 AM -7.6 °F -26.6 °F -13.0 °F 77% 30.17 in 10.0 mi SW 11.5 mph - N/A   Clear
6:35 AM -5.8 °F -23.4 °F -13.0 °F 71% 30.16 in 10.0 mi SW 10.4 mph - N/A   Clear
6:55 AM -5.8 °F -22.4 °F -13.0 °F 71% 30.14 in 10.0 mi SW 9.2 mph - N/A   Clear
7:15 AM -5.8 °F -23.4 °F -13.0 °F 71% 30.13 in 10.0 mi SW 10.4 mph - N/A   Clear
7:34 AM -5.8 °F -22.4 °F -13.0 °F 71% 30.11 in 10.0 mi SW 9.2 mph - N/A   Clear
7:55 AM -2.2 °F -20.7 °F -11.2 °F 66% 30.10 in 10.0 mi SW 12.7 mph - N/A   Clear
8:15 AM -2.2 °F -22.2 °F -9.4 °F 71% 30.09 in 10.0 mi SW 15.0 mph - N/A   Clear
8:35 AM -2.2 °F -24.1 °F -9.4 °F 71% 30.08 in 10.0 mi SW 18.4 mph - N/A   Clear
8:55 AM -0.4 °F -20.5 °F -9.4 °F 66% 30.07 in 10.0 mi SW 16.1 mph 21.9 mph N/A   Clear
9:15 AM 1.4 °F -18.2 °F -7.6 °F 66% 30.05 in 10.0 mi SW 16.1 mph - N/A   Clear
9:35 AM 1.4 °F -18.8 °F -5.8 °F 72% 30.04 in 10.0 mi SW 17.3 mph 24.2 mph N/A   Clear
9:55 AM 3.2 °F -17.6 °F -4.0 °F 72% 30.02 in 10.0 mi SW 19.6 mph - N/A   Clear
10:15 AM 5.0 °F -15.7 °F -2.2 °F 72% 30.00 in 7.0 mi SW 20.7 mph 26.5 mph N/A   Clear
10:35 AM 6.8 °F -13.8 °F -2.2 °F 67% 29.98 in 10.0 mi SW 21.9 mph 26.5 mph N/A   Clear
10:55 AM 8.6 °F -12.3 °F -0.4 °F 67% 29.95 in 10.0 mi SW 24.2 mph 29.9 mph N/A   Clear
11:15 AM 10.4 °F -8.6 °F 1.4 °F 67% 29.94 in 10.0 mi SW 20.7 mph 27.6 mph N/A   Clear
11:35 AM 10.4 °F -8.2 °F 1.4 °F 67% 29.92 in 10.0 mi SW 19.6 mph 28.8 mph N/A   Clear
11:55 AM 12.2 °F -7.1 °F 3.2 °F 67% 29.89 in 10.0 mi SW 23.0 mph 31.1 mph N/A   Clear
12:15 PM 14.0 °F -4.3 °F 5.0 °F 67% 29.88 in 10.0 mi SW 21.9 mph 32.2 mph N/A   Clear
12:34 PM 15.8 °F -2.3 °F 6.8 °F 68% 29.85 in 10.0 mi SW 23.0 mph 31.1 mph N/A   Clear
12:55 PM 17.6 °F -1.0 °F 6.8 °F 63% 29.82 in 10.0 mi SW 26.5 mph 29.9 mph N/A   Clear
1:15 PM 17.6 °F -1.0 °F 8.6 °F 68% 29.79 in 10.0 mi SW 26.5 mph 33.4 mph N/A   Clear
1:35 PM 17.6 °F -1.6 °F 8.6 °F 68% 29.77 in 7.0 mi SW 28.8 mph 36.8 mph N/A   Clear
1:55 PM 19.4 °F 1.4 °F 8.6 °F 63% 29.75 in 10.0 mi SW 26.5 mph 32.2 mph N/A   Clear
2:15 PM 19.4 °F 1.4 °F 8.6 °F 63% 29.74 in 10.0 mi SW 26.5 mph 35.7 mph N/A   Clear
2:35 PM 19.4 °F -0.0 °F 8.6 °F 63% 29.72 in 10.0 mi SW 32.2 mph 36.8 mph N/A   Clear
2:55 PM 21.2 °F 3.5 °F 10.4 °F 63% 29.71 in 10.0 mi WSW 27.6 mph 35.7 mph N/A   Clear
3:15 PM 21.2 °F 5.2 °F 10.4 °F 63% 29.72 in 10.0 mi WSW 21.9 mph 31.1 mph N/A   Clear
3:35 PM 21.2 °F 3.5 °F 10.4 °F 63% 29.71 in 10.0 mi WSW 27.6 mph 32.2 mph N/A   Clear
3:55 PM 23.0 °F 6.9 °F 12.2 °F 63% 29.72 in 10.0 mi West 24.2 mph 28.8 mph N/A   Clear
4:15 PM 21.2 °F 5.6 °F 12.2 °F 68% 29.72 in 10.0 mi West 20.7 mph 32.2 mph N/A   Clear
4:35 PM 21.2 °F 5.2 °F 12.2 °F 68% 29.72 in 10.0 mi West 21.9 mph 28.8 mph N/A   Clear
4:55 PM 21.2 °F 6.4 °F 10.4 °F 63% 29.72 in 10.0 mi West 18.4 mph - N/A   Scattered Clouds
5:15 PM 23.0 °F 8.3 °F 10.4 °F 59% 29.73 in 10.0 mi West 19.6 mph 29.9 mph N/A   Scattered Clouds
5:35 PM 21.2 °F 6.0 °F 10.4 °F 63% 29.73 in 10.0 mi WNW 19.6 mph - N/A   Scattered Clouds
5:55 PM 19.4 °F 4.5 °F 8.6 °F 63% 29.74 in 10.0 mi WNW 17.3 mph 24.2 mph N/A   Clear
6:15 PM 19.4 °F 3.6 °F 8.6 °F 63% 29.76 in 10.0 mi WNW 19.6 mph 28.8 mph N/A   Clear
6:35 PM 19.4 °F 3.6 °F 8.6 °F 63% 29.78 in 10.0 mi NW 19.6 mph - N/A   Scattered Clouds
6:55 PM 17.6 °F -0.3 °F 10.4 °F 73% 29.80 in 10.0 mi NW 24.2 mph 28.8 mph N/A   Scattered Clouds
7:15 PM 15.8 °F -4.4 °F 10.4 °F 79% 29.81 in 7.0 mi NW 29.9 mph 35.7 mph N/A   Mostly Cloudy
7:35 PM 12.2 °F -7.9 °F 6.8 °F 79% 29.83 in 10.0 mi NW 25.3 mph 36.8 mph N/A   Scattered Clouds
7:55 PM 12.2 °F -7.9 °F 5.0 °F 73% 29.84 in 10.0 mi NW 25.3 mph 33.4 mph N/A   Clear
8:15 PM 10.4 °F -9.1 °F 3.2 °F 73% 29.85 in 10.0 mi NW 21.9 mph - N/A   Clear
8:35 PM 10.4 °F -9.9 °F 3.2 °F 73% 29.87 in 10.0 mi NW 24.2 mph - N/A   Clear
8:55 PM 10.4 °F -9.9 °F 3.2 °F 73% 29.88 in 10.0 mi NW 24.2 mph 31.1 mph N/A   Scattered Clouds
9:15 PM 10.4 °F -8.6 °F 3.2 °F 73% 29.89 in 10.0 mi NW 20.7 mph 28.8 mph N/A   Scattered Clouds
9:34 PM 8.6 °F -15.1 °F 1.4 °F 73% 29.91 in 2.0 mi NW 33.4 mph 39.1 mph N/A   Haze
9:55 PM 6.8 °F -14.7 °F -0.4 °F 72% 29.93 in 3.0 mi WNW 24.2 mph 33.4 mph N/A   Haze
10:15 PM 5.0 °F -17.5 °F -4.0 °F 66% 29.93 in 7.0 mi WNW 25.3 mph 28.8 mph N/A   Clear
10:35 PM 3.2 °F -19.5 °F -7.6 °F 61% 29.94 in 5.0 mi WNW 24.2 mph 29.9 mph N/A   Haze
10:55 PM 3.2 °F -19.0 °F -7.6 °F 61% 29.95 in 7.0 mi WNW 23.0 mph 29.9 mph N/A   Clear
11:15 PM 1.4 °F -18.2 °F -7.6 °F 66% 29.96 in 7.0 mi NW 16.1 mph - N/A   Clear
11:34 PM 1.4 °F -23.2 °F -9.4 °F 61% 29.98 in 7.0 mi NW 27.6 mph 31.1 mph N/A   Clear
11:55 PM -0.4 °F -24.7 °F -9.4 °F 66% 29.98 in 10.0 mi NW 25.3 mph - N/A   Clear